Time;durP1;ratioP1;P1;durP2;ratioP2;P2;SDS_P1;SDS_P2;PMS_P1;PMS_P2;Temp;Humidity;BMP_temperature;BMP_pressure;BME280_temperature;BME280_humidity;BME280_pressure;Samples;Min_cycle;Max_cycle;Signal;HPM_P1;HPM_P2
2022/06/14 00:02:32;;;;;;;;;;;14.00;1.00;;;;;;10214751;28;85037;-56
2022/06/14 00:07:32;;;;;;;;;;;14.00;1.00;;;;;;10211480;28;84874;-56
2022/06/14 00:12:33;;;;;;;;;;;13.80;1.00;;;;;;10209182;28;84088;-57
2022/06/14 00:17:33;;;;;;;;;;;13.80;1.00;;;;;;10233504;23;84101;-50
2022/06/14 00:22:34;;;;;;;;;;;13.80;1.00;;;;;;10287759;28;84130;-47
2022/06/14 00:27:34;;;;;;;;;;;13.80;1.00;;;;;;10271569;28;85836;-46
2022/06/14 00:32:35;;;;;;;;;;;13.80;1.00;;;;;;10257130;28;84325;-48
2022/06/14 00:37:36;;;;;;;;;;;13.70;1.00;;;;;;10248526;28;84109;-51
2022/06/14 00:42:37;;;;;;;;;;;13.70;1.00;;;;;;10278748;28;84798;-49
2022/06/14 00:47:40;;;;;;;;;;;13.70;1.00;;;;;;10269345;28;86531;-50
2022/06/14 00:52:44;;;;;;;;;;;13.80;1.00;;;;;;10257361;28;84206;-48
2022/06/14 00:57:50;;;;;;;;;;;13.60;1.00;;;;;;10247020;28;84638;-51
2022/06/14 01:02:52;;;;;;;;;;;13.60;1.00;;;;;;10277969;28;86191;-51
2022/06/14 01:07:55;;;;;;;;;;;13.60;1.00;;;;;;10286401;28;85883;-47
2022/06/14 01:12:58;;;;;;;;;;;13.50;1.00;;;;;;10254759;28;84771;-49
2022/06/14 01:18:04;;;;;;;;;;;13.40;1.00;;;;;;10245920;28;85239;-48
2022/06/14 01:23:06;;;;;;;;;;;13.40;1.00;;;;;;10280117;28;84923;-47
2022/06/14 01:28:08;;;;;;;;;;;13.30;1.00;;;;;;10286084;28;84109;-47
2022/06/14 01:33:11;;;;;;;;;;;13.20;1.00;;;;;;10250547;28;84754;-49
2022/06/14 01:38:13;;;;;;;;;;;13.20;1.00;;;;;;10244654;28;84863;-53
2022/06/14 01:43:36;;;;;;;;;;;13.10;1.00;;;;;;10280963;28;85064;-48
2022/06/14 01:48:47;;;;;;;;;;;13.10;1.00;;;;;;10284980;28;85884;-51
2022/06/14 01:53:54;;;;;;;;;;;13.00;1.00;;;;;;10245491;28;85971;-51
2022/06/14 01:59:03;;;;;;;;;;;13.00;1.00;;;;;;10246692;28;84953;-52
2022/06/14 02:09:36;;;;;;;;;;;12.90;1.00;;;;;;10284443;28;84898;-47
2022/06/14 02:14:40;;;;;;;;;;;12.90;1.00;;;;;;10285451;28;84099;-51
2022/06/14 02:19:45;;;;;;;;;;;12.90;1.00;;;;;;10251470;28;84924;-50
2022/06/14 02:24:57;;;;;;;;;;;12.90;1.00;;;;;;10243526;28;85166;-49
2022/06/14 02:30:07;;;;;;;;;;;12.80;1.00;;;;;;10279615;28;83988;-51
2022/06/14 02:35:21;;;;;;;;;;;12.80;1.00;;;;;;10285829;28;84858;-51
2022/06/14 02:40:22;;;;;;;;;;;12.80;1.00;;;;;;10247607;28;85037;-49
2022/06/14 02:45:32;;;;;;;;;;;12.70;1.00;;;;;;10252523;28;84113;-51
2022/06/14 02:50:39;;;;;;;;;;;12.70;1.00;;;;;;10276965;28;84956;-48
2022/06/14 02:55:43;;;;;;;;;;;12.70;1.00;;;;;;10269810;28;84894;-52
2022/06/14 03:00:50;;;;;;;;;;;12.70;1.00;;;;;;10276462;28;85905;-49
2022/06/14 03:05:55;;;;;;;;;;;12.60;1.00;;;;;;10290896;28;84144;-51
2022/06/14 03:11:05;;;;;;;;;;;12.70;1.00;;;;;;10291840;28;84399;-53
2022/06/14 03:16:13;;;;;;;;;;;12.60;1.00;;;;;;10284492;28;84901;-52
2022/06/14 03:21:23;;;;;;;;;;;12.70;1.00;;;;;;10276323;28;84285;-50
2022/06/14 03:26:36;;;;;;;;;;;12.60;1.00;;;;;;10290505;28;84998;-50
2022/06/14 03:31:40;;;;;;;;;;;12.70;1.00;;;;;;10290876;28;84305;-48
2022/06/14 03:36:41;;;;;;;;;;;12.70;1.00;;;;;;10282304;28;84332;-50
2022/06/14 03:41:45;;;;;;;;;;;12.70;1.00;;;;;;10250604;28;84866;-52
2022/06/14 03:47:05;;;;;;;;;;;12.70;1.00;;;;;;10258840;28;84139;-48
2022/06/14 03:52:24;;;;;;;;;;;12.80;1.00;;;;;;10290493;28;84922;-53
2022/06/14 03:57:35;;;;;;;;;;;12.70;1.00;;;;;;10279610;28;85054;-49
2022/06/14 04:02:53;;;;;;;;;;;12.80;1.00;;;;;;10253067;28;84354;-51
2022/06/14 04:08:01;;;;;;;;;;;12.90;1.00;;;;;;10261690;28;84063;-49
2022/06/14 04:13:11;;;;;;;;;;;12.90;1.00;;;;;;10236271;28;84401;-49
2022/06/14 04:18:38;;;;;;;;;;;12.90;1.00;;;;;;10229504;28;84949;-50
2022/06/14 04:23:53;;;;;;;;;;;13.00;1.00;;;;;;10227723;28;84102;-50
2022/06/14 04:28:58;;;;;;;;;;;13.20;1.00;;;;;;10224081;28;87046;-49
2022/06/14 04:33:58;;;;;;;;;;;13.20;1.00;;;;;;10226394;28;86273;-50
2022/06/14 04:38:59;;;;;;;;;;;13.20;1.00;;;;;;10223425;28;84442;-51
2022/06/14 04:44:09;;;;;;;;;;;13.20;1.00;;;;;;10222894;28;84894;-49
2022/06/14 04:49:19;;;;;;;;;;;13.20;1.00;;;;;;10223558;28;84704;-50
2022/06/14 04:54:23;;;;;;;;;;;13.30;1.00;;;;;;10221681;28;84816;-48
2022/06/14 04:59:31;;;;;;;;;;;13.30;1.00;;;;;;10225217;28;84496;-51
2022/06/14 05:04:36;;;;;;;;;;;13.40;1.00;;;;;;10224122;28;84836;-48
2022/06/14 05:09:45;;;;;;;;;;;13.50;1.00;;;;;;10227297;28;84165;-48
2022/06/14 05:14:50;;;;;;;;;;;13.60;1.00;;;;;;10222215;28;84285;-50
2022/06/14 05:19:54;;;;;;;;;;;13.60;1.00;;;;;;10179860;28;1092566;-51
2022/06/14 05:24:55;;;;;;;;;;;13.70;1.00;;;;;;10225854;28;84136;-48
2022/06/14 05:30:08;;;;;;;;;;;13.80;1.00;;;;;;10227535;28;84770;-50
2022/06/14 05:35:22;;;;;;;;;;;13.90;1.00;;;;;;10226880;28;86229;-49
2022/06/14 05:40:23;;;;;;;;;;;14.10;1.00;;;;;;10249389;28;84535;-48
2022/06/14 05:45:25;;;;;;;;;;;14.20;1.00;;;;;;10261270;28;85096;-48
2022/06/14 05:50:33;;;;;;;;;;;14.40;1.00;;;;;;10261955;28;85039;-50
2022/06/14 05:55:39;;;;;;;;;;;14.60;1.00;;;;;;10261864;28;85121;-49
2022/06/14 06:00:47;;;;;;;;;;;14.60;1.00;;;;;;10249009;28;84917;-49
2022/06/14 06:06:08;;;;;;;;;;;14.80;1.00;;;;;;10267851;28;84960;-49
2022/06/14 06:11:10;;;;;;;;;;;15.00;1.00;;;;;;10261554;28;86307;-48
2022/06/14 06:16:14;;;;;;;;;;;15.30;1.00;;;;;;10253779;28;84217;-49
2022/06/14 06:21:23;;;;;;;;;;;15.40;1.00;;;;;;10294133;22;85645;-49
2022/06/14 06:26:27;;;;;;;;;;;15.50;99.90;;;;;;10306364;28;84014;-50
2022/06/14 06:31:30;;;;;;;;;;;15.80;99.90;;;;;;10288453;28;85768;-51
2022/06/14 06:36:43;;;;;;;;;;;16.00;99.90;;;;;;10304181;28;86429;-50
2022/06/14 06:41:50;;;;;;;;;;;16.00;20.10;;;;;;10268365;28;86908;-50
2022/06/14 06:47:10;;;;;;;;;;;16.20;99.90;;;;;;10233046;28;84339;-53
2022/06/14 06:52:12;;;;;;;;;;;16.40;1.00;;;;;;10230642;28;85549;-49
2022/06/14 06:57:17;;;;;;;;;;;16.60;1.00;;;;;;10210840;28;84854;-49
2022/06/14 07:02:37;;;;;;;;;;;16.20;1.00;;;;;;10228645;28;84896;-57
2022/06/14 07:07:57;;;;;;;;;;;16.20;1.00;;;;;;10208142;28;86082;-48
2022/06/14 07:13:03;;;;;;;;;;;16.60;1.00;;;;;;10237547;28;85272;-50
2022/06/14 07:18:14;;;;;;;;;;;16.80;99.90;;;;;;10249644;28;84954;-48
2022/06/14 07:23:23;;;;;;;;;;;16.80;99.90;;;;;;10217928;28;85021;-50
2022/06/14 07:28:26;;;;;;;;;;;16.50;1.00;;;;;;10208066;28;84985;-49
2022/06/14 07:33:28;;;;;;;;;;;16.60;1.00;;;;;;10224674;28;86764;-46
2022/06/14 07:38:33;;;;;;;;;;;17.00;1.00;;;;;;10253499;28;84798;-48
2022/06/14 07:43:34;;;;;;;;;;;18.20;1.00;;;;;;10215748;28;84230;-53
2022/06/14 07:48:46;;;;;;;;;;;19.20;62.20;;;;;;10231283;28;84236;-54
2022/06/14 07:54:00;;;;;;;;;;;19.30;1.00;;;;;;10251146;28;84064;-52
2022/06/14 07:59:07;;;;;;;;;;;18.50;1.00;;;;;;10243232;28;86074;-55
2022/06/14 08:04:13;;;;;;;;;;;18.10;1.00;;;;;;10245894;28;84155;-49
2022/06/14 08:09:15;;;;;;;;;;;18.70;1.00;;;;;;10246498;28;85703;-52
2022/06/14 08:14:18;;;;;;;;;;;19.60;1.00;;;;;;10246802;28;84916;-51
2022/06/14 08:19:23;;;;;;;;;;;20.10;99.90;;;;;;10244744;28;85998;-50
2022/06/14 08:24:27;;;;;;;;;;;20.40;1.00;;;;;;10245554;28;84262;-52
2022/06/14 08:29:31;;;;;;;;;;;20.80;1.00;;;;;;10220450;28;85914;-50
2022/06/14 08:34:36;;;;;;;;;;;20.90;1.00;;;;;;10246252;28;85059;-49
2022/06/14 08:39:39;;;;;;;;;;;20.10;1.00;;;;;;10255454;28;85942;-53
2022/06/14 08:44:49;;;;;;;;;;;20.60;1.00;;;;;;10244996;28;87245;-52
2022/06/14 08:50:02;;;;;;;;;;;20.30;1.00;;;;;;10245089;28;85077;-50
2022/06/14 08:55:11;;;;;;;;;;;19.70;1.00;;;;;;10242477;28;86077;-49
2022/06/14 09:00:31;;;;;;;;;;;19.90;1.00;;;;;;10241693;28;84941;-54
2022/06/14 09:05:56;;;;;;;;;;;21.50;1.00;;;;;;10244883;28;84982;-54
2022/06/14 09:11:11;;;;;;;;;;;23.00;99.90;;;;;;10240300;28;84927;-53
2022/06/14 09:16:12;;;;;;;;;;;23.80;1.00;;;;;;10246631;28;84896;-54
2022/06/14 09:21:16;;;;;;;;;;;23.90;1.00;;;;;;10244757;28;84348;-56
2022/06/14 09:26:19;;;;;;;;;;;23.50;1.00;;;;;;10247073;28;84042;-49
2022/06/14 09:31:20;;;;;;;;;;;23.70;1.00;;;;;;10245302;28;84965;-51
2022/06/14 09:36:39;;;;;;;;;;;22.10;1.00;;;;;;10246224;28;84974;-50
2022/06/14 09:41:52;;;;;;;;;;;21.20;1.00;;;;;;10246103;28;84208;-53
2022/06/14 09:47:12;;;;;;;;;;;20.90;1.00;;;;;;10247802;28;84194;-51
2022/06/14 09:52:13;;;;;;;;;;;21.30;55.30;;;;;;10227851;28;84132;-52
2022/06/14 09:57:13;;;;;;;;;;;23.10;1.00;;;;;;10252269;28;85333;-53
2022/06/14 10:02:17;;;;;;;;;;;24.20;1.00;;;;;;10234412;28;87163;-50
2022/06/14 10:07:26;;;;;;;;;;;25.30;1.00;;;;;;10252232;28;84943;-53
2022/06/14 10:12:32;;;;;;;;;;;26.30;1.00;;;;;;10253299;28;84089;-51
2022/06/14 10:17:51;;;;;;;;;;;25.30;1.00;;;;;;10253072;28;84232;-51
2022/06/14 10:22:55;;;;;;;;;;;24.90;1.00;;;;;;10251888;28;84208;-55
2022/06/14 10:28:11;;;;;;;;;;;25.20;1.00;;;;;;10252457;28;84887;-52
2022/06/14 10:33:23;;;;;;;;;;;25.50;1.00;;;;;;10252755;28;84063;-54
2022/06/14 10:38:44;;;;;;;;;;;26.20;1.00;;;;;;10252549;28;85101;-50
2022/06/14 10:43:45;;;;;;;;;;;27.40;1.00;;;;;;10251635;28;84118;-53
2022/06/14 10:48:45;;;;;;;;;;;27.70;1.00;;;;;;10252269;28;84196;-54
2022/06/14 10:53:55;;;;;;;;;;;28.00;1.00;;;;;;10252365;28;84025;-51
2022/06/14 10:59:02;;;;;;;;;;;28.60;1.00;;;;;;10251481;28;84996;-53
2022/06/14 11:04:07;;;;;;;;;;;28.30;1.00;;;;;;10250081;28;85948;-50
2022/06/14 11:09:20;;;;;;;;;;;28.40;1.00;;;;;;10251256;28;84372;-46
2022/06/14 11:14:23;;;;;;;;;;;27.40;1.00;;;;;;10251620;28;84146;-54
2022/06/14 11:19:36;;;;;;;;;;;28.30;1.00;;;;;;10251151;28;84842;-51
2022/06/14 11:24:40;;;;;;;;;;;28.30;1.00;;;;;;10251749;28;84907;-54
2022/06/14 11:29:45;;;;;;;;;;;28.90;1.00;;;;;;10250116;28;84206;-56
2022/06/14 11:34:46;;;;;;;;;;;28.70;1.00;;;;;;10250542;28;85363;-51
2022/06/14 11:39:48;;;;;;;;;;;29.90;1.00;;;;;;10250010;28;84740;-51
2022/06/14 11:44:48;;;;;;;;;;;29.70;1.00;;;;;;10249246;28;87046;-54
2022/06/14 11:50:12;;;;;;;;;;;30.00;1.00;;;;;;10249431;28;84996;-54
2022/06/14 11:55:24;;;;;;;;;;;29.20;1.00;;;;;;10230783;28;84192;-53
2022/06/14 12:00:38;;;;;;;;;;;29.60;1.00;;;;;;10249783;28;84090;-56
2022/06/14 12:06:15;;;;;;;;;;;29.70;1.00;;;;;;10249469;28;85040;-53
2022/06/14 12:11:18;;;;;;;;;;;29.20;1.00;;;;;;10198126;28;85340;-57
2022/06/14 12:16:38;;;;;;;;;;;29.10;1.00;;;;;;10246250;28;84165;-55
2022/06/14 12:21:51;;;;;;;;;;;29.50;1.00;;;;;;10287263;22;84159;-53
2022/06/14 12:26:59;;;;;;;;;;;29.50;1.00;;;;;;10289331;28;84301;-50
2022/06/14 12:32:00;;;;;;;;;;;30.30;1.00;;;;;;10318638;28;84360;-51
2022/06/14 12:37:01;;;;;;;;;;;30.20;1.00;;;;;;10329424;28;84311;-48
2022/06/14 12:42:12;;;;;;;;;;;30.30;99.90;;;;;;10328958;28;84230;-53
2022/06/14 12:47:16;;;;;;;;;;;30.10;1.00;;;;;;10329587;28;85168;-51
2022/06/14 12:52:21;;;;;;;;;;;29.40;99.90;;;;;;10327482;28;85066;-51
2022/06/14 12:57:32;;;;;;;;;;;30.30;99.90;;;;;;10328119;28;86883;-50
2022/06/14 13:02:40;;;;;;;;;;;29.70;99.90;;;;;;10329404;28;85156;-52
2022/06/14 13:07:40;;;;;;;;;;;29.90;1.00;;;;;;10332798;28;84227;-53
2022/06/14 13:12:59;;;;;;;;;;;31.20;1.00;;;;;;10329789;28;85071;-50
2022/06/14 13:18:10;;;;;;;;;;;30.50;99.90;;;;;;10332233;28;85014;-53
2022/06/14 13:23:20;;;;;;;;;;;30.00;99.90;;;;;;10328022;28;84227;-51
2022/06/14 13:28:23;;;;;;;;;;;30.40;99.90;;;;;;10330833;28;84168;-53
2022/06/14 13:33:42;;;;;;;;;;;29.70;99.90;;;;;;10329647;28;84202;-52
2022/06/14 13:38:50;;;;;;;;;;;29.50;99.90;;;;;;10328292;28;84142;-50
2022/06/14 13:43:53;;;;;;;;;;;29.70;99.90;;;;;;10322511;28;84114;-54
2022/06/14 13:49:00;;;;;;;;;;;29.30;99.90;;;;;;10314786;28;84456;-60
2022/06/14 13:54:06;;;;;;;;;;;28.60;99.90;;;;;;10326717;28;85107;-55
2022/06/14 13:59:14;;;;;;;;;;;28.10;1.00;;;;;;10326919;28;84829;-59
2022/06/14 14:04:17;;;;;;;;;;;27.20;99.90;;;;;;10328998;28;84307;-49
2022/06/14 14:09:18;;;;;;;;;;;26.60;99.90;;;;;;10346322;28;84060;-50
2022/06/14 14:14:24;;;;;;;;;;;25.10;99.90;;;;;;10327931;28;84901;-52
2022/06/14 14:19:48;;;;;;;;;;;24.80;1.00;;;;;;10347544;28;84036;-48
2022/06/14 14:25:01;;;;;;;;;;;24.50;1.00;;;;;;10321075;28;84693;-50
2022/06/14 14:30:06;;;;;;;;;;;23.90;1.00;;;;;;10323051;28;84297;-48
2022/06/14 14:35:15;;;;;;;;;;;24.10;1.00;;;;;;10324435;28;86092;-50
2022/06/14 14:40:36;;;;;;;;;;;23.90;1.00;;;;;;10328730;28;84256;-48
2022/06/14 14:45:43;;;;;;;;;;;24.00;1.00;;;;;;10330945;28;85011;-51
2022/06/14 14:51:04;;;;;;;;;;;23.60;1.00;;;;;;10332421;28;84870;-49
2022/06/14 14:56:13;;;;;;;;;;;23.60;1.00;;;;;;10331503;28;84171;-49
2022/06/14 15:06:48;;;;;;;;;;;23.50;1.00;;;;;;10332165;28;84249;-47
2022/06/14 15:11:56;;;;;;;;;;;23.40;1.00;;;;;;10331752;28;84164;-50
2022/06/14 15:22:35;;;;;;;;;;;23.70;1.00;;;;;;10331488;28;84952;-49
2022/06/14 15:27:36;;;;;;;;;;;23.30;1.00;;;;;;10330373;28;85332;-51
2022/06/14 15:32:36;;;;;;;;;;;23.10;1.00;;;;;;10330545;28;84922;-49
2022/06/14 15:37:42;;;;;;;;;;;22.80;1.00;;;;;;10330742;28;84809;-51
2022/06/14 15:42:51;;;;;;;;;;;22.70;1.00;;;;;;10331330;28;84833;-49
2022/06/14 15:48:00;;;;;;;;;;;22.80;1.00;;;;;;10330305;28;84365;-49
2022/06/14 15:53:13;;;;;;;;;;;22.80;1.00;;;;;;10330967;28;84109;-47
2022/06/14 15:58:14;;;;;;;;;;;22.60;1.00;;;;;;10331068;28;84906;-49
2022/06/14 16:03:15;;;;;;;;;;;22.40;1.00;;;;;;10329721;28;85292;-49
2022/06/14 16:08:24;;;;;;;;;;;22.50;1.00;;;;;;10330145;28;85360;-49
2022/06/14 16:13:25;;;;;;;;;;;22.60;1.00;;;;;;10330646;28;84150;-48
2022/06/14 16:18:32;;;;;;;;;;;22.50;1.00;;;;;;10329375;28;84262;-48
2022/06/14 16:23:35;;;;;;;;;;;22.30;1.00;;;;;;10329536;28;85562;-49
2022/06/14 16:28:47;;;;;;;;;;;22.30;1.00;;;;;;10329422;28;85135;-48
2022/06/14 16:33:56;;;;;;;;;;;22.20;1.00;;;;;;10330588;28;84136;-48
2022/06/14 16:39:04;;;;;;;;;;;22.20;1.00;;;;;;10330572;28;84988;-50
2022/06/14 16:44:13;;;;;;;;;;;22.00;1.00;;;;;;10330268;28;85303;-47
2022/06/14 16:49:33;;;;;;;;;;;22.10;1.00;;;;;;10329647;28;84130;-48
2022/06/14 16:54:40;;;;;;;;;;;22.10;1.00;;;;;;10329410;28;84905;-49
2022/06/14 16:59:53;;;;;;;;;;;22.00;1.00;;;;;;10328778;28;84927;-48
2022/06/14 17:05:10;;;;;;;;;;;21.90;1.00;;;;;;10329037;28;84059;-47
2022/06/14 17:10:29;;;;;;;;;;;22.00;1.00;;;;;;10329277;28;85060;-48
2022/06/14 17:15:33;;;;;;;;;;;21.90;1.00;;;;;;10328929;28;84741;-50
2022/06/14 17:20:40;;;;;;;;;;;21.80;1.00;;;;;;10327898;28;84857;-49
2022/06/14 17:31:11;;;;;;;;;;;21.70;1.00;;;;;;10327772;28;84010;-46
2022/06/14 17:36:11;;;;;;;;;;;21.70;1.00;;;;;;10327013;28;84793;-49
2022/06/14 17:41:14;;;;;;;;;;;21.60;1.00;;;;;;10327688;28;84721;-52
2022/06/14 17:46:25;;;;;;;;;;;21.60;1.00;;;;;;10328437;28;84198;-51
2022/06/14 17:51:37;;;;;;;;;;;21.50;1.00;;;;;;10328593;28;85411;-49
2022/06/14 17:56:58;;;;;;;;;;;21.40;1.00;;;;;;10323493;28;84276;-49
2022/06/14 18:02:03;;;;;;;;;;;21.30;1.00;;;;;;10319067;28;84972;-49
2022/06/14 18:07:04;;;;;;;;;;;21.40;1.00;;;;;;10304200;28;84190;-50
2022/06/14 18:12:04;;;;;;;;;;;21.30;1.00;;;;;;10332096;28;84901;-48
2022/06/14 18:17:05;;;;;;;;;;;21.20;1.00;;;;;;10335937;28;84674;-49
2022/06/14 18:22:06;;;;;;;;;;;21.20;1.00;;;;;;10279542;22;85687;-57
2022/06/14 18:27:08;;;;;;;;;;;21.00;1.00;;;;;;10212370;28;85033;-54
2022/06/14 18:32:12;;;;;;;;;;;21.00;99.90;;;;;;10215028;28;84269;-56
2022/06/14 18:37:18;;;;;;;;;;;20.90;35.10;;;;;;10202428;28;85429;-52
2022/06/14 18:42:25;;;;;;;;;;;20.70;99.90;;;;;;10206800;28;86947;-60
2022/06/14 18:47:28;;;;;;;;;;;20.70;99.90;;;;;;10220824;28;84319;-53
2022/06/14 18:52:36;;;;;;;;;;;20.60;99.90;;;;;;10214864;28;84891;-53
2022/06/14 18:57:45;;;;;;;;;;;20.50;99.90;;;;;;10206838;28;85963;-56
2022/06/14 19:02:45;;;;;;;;;;;20.50;99.90;;;;;;10220994;28;84274;-47
2022/06/14 19:08:05;;;;;;;;;;;20.40;99.90;;;;;;10222437;28;85895;-53
2022/06/14 19:13:13;;;;;;;;;;;20.30;99.90;;;;;;10182866;28;86413;-52
2022/06/14 19:18:16;;;;;;;;;;;20.30;99.90;;;;;;10206530;28;84412;-50
2022/06/14 19:23:17;;;;;;;;;;;20.20;1.00;;;;;;10232073;28;84795;-49
2022/06/14 19:28:36;;;;;;;;;;;20.10;1.00;;;;;;10219382;28;87061;-53
2022/06/14 19:33:40;;;;;;;;;;;19.90;1.00;;;;;;10235752;28;84903;-52
2022/06/14 19:38:43;;;;;;;;;;;19.80;99.90;;;;;;10226187;28;85463;-52
2022/06/14 19:43:44;;;;;;;;;;;19.70;99.90;;;;;;10241321;28;84454;-56
2022/06/14 19:54:11;;;;;;;;;;;19.40;99.90;;;;;;10238270;28;85259;-53
2022/06/14 19:59:16;;;;;;;;;;;19.30;99.90;;;;;;10221015;28;84980;-55
2022/06/14 20:04:18;;;;;;;;;;;19.20;1.00;;;;;;10219818;28;84729;-53
2022/06/14 20:09:26;;;;;;;;;;;19.10;1.00;;;;;;10222896;28;84805;-53
2022/06/14 20:14:29;;;;;;;;;;;18.90;99.90;;;;;;10240261;28;84059;-52
2022/06/14 20:19:32;;;;;;;;;;;18.80;1.00;;;;;;10241945;28;84196;-53
2022/06/14 20:24:33;;;;;;;;;;;18.60;99.90;;;;;;10243361;28;84207;-50
2022/06/14 20:29:35;;;;;;;;;;;18.40;1.00;;;;;;10243946;28;84172;-51
2022/06/14 20:34:49;;;;;;;;;;;18.40;8.60;;;;;;10236332;28;85001;-50
2022/06/14 20:39:57;;;;;;;;;;;18.20;99.90;;;;;;10239176;28;85030;-52
2022/06/14 20:45:00;;;;;;;;;;;18.10;1.00;;;;;;10202354;28;84738;-54
2022/06/14 20:50:01;;;;;;;;;;;18.00;1.00;;;;;;10186457;28;85721;-50
2022/06/14 20:55:02;;;;;;;;;;;17.90;99.90;;;;;;10190521;28;84651;-51
2022/06/14 21:00:04;;;;;;;;;;;17.80;1.00;;;;;;10195104;28;84742;-51
2022/06/14 21:05:05;;;;;;;;;;;17.80;1.00;;;;;;10183982;28;84718;-54
2022/06/14 21:11:21;;;;;;;;;;;17.70;1.00;;;;;;10169136;28;84107;-50
2022/06/14 21:15:28;;;;;;;;;;;17.50;99.90;;;;;;10190191;28;87274;-54
2022/06/14 21:20:29;;;;;;;;;;;17.50;99.90;;;;;;10191104;28;84765;-52
2022/06/14 21:25:34;;;;;;;;;;;17.40;1.00;;;;;;10198640;28;84288;-56
2022/06/14 21:30:43;;;;;;;;;;;17.30;1.00;;;;;;10230343;28;87027;-50
2022/06/14 21:35:48;;;;;;;;;;;17.30;1.00;;;;;;10223842;28;84797;-55
2022/06/14 21:41:07;;;;;;;;;;;17.20;99.90;;;;;;10215064;28;87765;-57
2022/06/14 21:46:08;;;;;;;;;;;17.10;99.90;;;;;;10204594;28;86574;-50
2022/06/14 21:51:10;;;;;;;;;;;16.90;1.00;;;;;;10210206;28;84821;-50
2022/06/14 21:56:10;;;;;;;;;;;16.80;1.00;;;;;;10205663;28;84097;-50
2022/06/14 22:01:14;;;;;;;;;;;16.80;1.00;;;;;;10204778;28;85071;-51
2022/06/14 22:06:14;;;;;;;;;;;16.70;1.00;;;;;;10206559;28;84916;-50
2022/06/14 22:11:15;;;;;;;;;;;16.60;1.00;;;;;;10204560;28;84070;-53
2022/06/14 22:16:17;;;;;;;;;;;16.50;1.00;;;;;;10205935;28;85365;-50
2022/06/14 22:21:18;;;;;;;;;;;16.40;95.20;;;;;;10203500;28;86374;-50
2022/06/14 22:26:19;;;;;;;;;;;16.30;99.90;;;;;;10211710;28;84939;-52
2022/06/14 22:31:20;;;;;;;;;;;16.20;99.90;;;;;;10198856;28;84210;-48
2022/06/14 22:36:27;;;;;;;;;;;16.20;99.90;;;;;;10165677;28;84937;-57
2022/06/14 22:41:34;;;;;;;;;;;16.10;99.90;;;;;;10164232;28;84153;-53
2022/06/14 22:46:34;;;;;;;;;;;16.10;1.00;;;;;;10165318;28;84077;-53
2022/06/14 22:51:36;;;;;;;;;;;16.00;1.00;;;;;;10172758;28;84124;-52
2022/06/14 22:56:36;;;;;;;;;;;15.90;1.00;;;;;;10205180;28;84239;-51
2022/06/14 23:01:37;;;;;;;;;;;15.90;1.00;;;;;;10202431;28;84725;-48
2022/06/14 23:06:39;;;;;;;;;;;15.80;1.00;;;;;;10170755;28;83997;-49
2022/06/14 23:11:43;;;;;;;;;;;15.70;1.00;;;;;;10178662;28;84852;-48
2022/06/14 23:16:44;;;;;;;;;;;15.70;1.00;;;;;;10208362;28;84933;-53
2022/06/14 23:21:45;;;;;;;;;;;15.50;1.00;;;;;;10199899;28;84780;-54
2022/06/14 23:26:46;;;;;;;;;;;15.40;1.00;;;;;;10170462;28;84888;-53
2022/06/14 23:31:46;;;;;;;;;;;15.30;1.00;;;;;;10178835;28;84118;-50
2022/06/14 23:36:47;;;;;;;;;;;15.30;1.00;;;;;;10225473;28;84570;-50
2022/06/14 23:41:48;;;;;;;;;;;15.20;36.10;;;;;;10199781;28;84861;-51
2022/06/14 23:46:48;;;;;;;;;;;15.20;99.90;;;;;;10170188;28;84707;-54
2022/06/14 23:51:49;;;;;;;;;;;15.10;99.90;;;;;;10178693;28;84953;-55
2022/06/14 23:56:49;;;;;;;;;;;15.00;99.90;;;;;;10209894;28;84901;-49
